Castor, Louisiana
Current Conditions -  °F | °C
As of 4:35 PM on Monday 20 Oct 2014 (Local Time) from KMNE Reporting Station
Clear Clear  
Wind Chill: 75°   Ceiling: Unl
Heat Index: 75°   Visibility: 10mi
Dew Point: 52°   Wind: 5mph
Humidity: 44%   Direction: 360°N
Pressure: 30.04"   Gusts: NA
Location:  32.25°N, 93.17°W
Report Text: KMNE 202135Z AUTO 36004KT 10SM CLR 24/11 A3004 RMK AO2
Loading
Personal Weather Stations






























Interactive Weather Map
Tropical Storm Tracking
New forecast layout! Learn more

10-Day Weather Forecast

Advertisements
Track Severe Weather on mobile